createdAt,value
2022-11-24T00:06:31.209Z,203.90
2022-11-24T00:16:36.331Z,206.83
2022-11-24T00:26:41.112Z,205.17
2022-11-24T00:36:44.584Z,209.67
2022-11-24T00:46:49.504Z,203.43
2022-11-24T00:56:52.962Z,209.83
2022-11-24T01:06:57.794Z,216.03
2022-11-24T01:17:01.265Z,205.07
2022-11-24T01:27:06.121Z,208.63
2022-11-24T01:37:10.036Z,203.20
2022-11-24T01:47:34.495Z,202.93
2022-11-24T01:57:44.145Z,207.40
2022-11-24T02:07:50.046Z,200.40
2022-11-24T02:17:53.558Z,216.17
2022-11-24T02:28:00.252Z,204.80
2022-11-24T02:38:03.779Z,205.20
2022-11-24T02:48:09.181Z,207.23
2022-11-24T02:58:12.597Z,205.60
2022-11-24T03:08:17.485Z,211.70
2022-11-24T03:18:21.068Z,209.50
2022-11-24T03:28:25.906Z,203.00
2022-11-24T03:38:29.829Z,205.40
2022-11-24T03:48:34.661Z,212.23
2022-11-24T03:58:38.108Z,199.90
2022-11-24T04:08:42.928Z,203.57
2022-11-24T04:18:46.470Z,195.73
2022-11-24T04:28:51.248Z,198.13
2022-11-24T04:39:24.144Z,207.87
2022-11-24T04:49:20.339Z,203.30
2022-11-24T04:59:23.772Z,211.80
2022-11-24T05:09:41.998Z,205.60
2022-11-24T05:19:52.119Z,209.40
2022-11-24T05:29:56.949Z,216.33
2022-11-24T05:40:00.453Z,216.40
2022-11-24T05:50:06.057Z,205.27
2022-11-24T06:00:11.919Z,212.80
2022-11-24T06:10:20.713Z,221.53
2022-11-24T06:20:29.729Z,223.63
2022-11-24T06:30:36.212Z,227.47
2022-11-24T06:40:39.694Z,210.13
2022-11-24T06:50:44.637Z,221.17
2022-11-24T07:00:48.872Z,221.93
2022-11-24T07:10:53.941Z,214.73
2022-11-24T07:20:57.410Z,212.33
2022-11-24T07:31:08.094Z,208.27
2022-11-24T07:41:14.266Z,212.37
2022-11-24T07:51:19.185Z,215.47
2022-11-24T08:01:22.812Z,218.20
2022-11-24T08:11:28.645Z,218.70
2022-11-24T08:21:32.601Z,215.17
2022-11-24T08:31:40.550Z,216.57
2022-11-24T08:41:43.991Z,230.67
2022-11-24T08:51:50.057Z,221.00
2022-11-24T09:01:53.501Z,215.43
2022-11-24T09:11:58.482Z,221.23
2022-11-24T09:22:01.936Z,217.73
2022-11-24T09:32:07.248Z,221.60
2022-11-24T09:42:17.299Z,222.93
2022-11-24T09:52:40.512Z,224.83
2022-11-24T10:02:45.000Z,217.63
2022-11-24T10:13:00.648Z,221.40
2022-11-24T10:23:25.332Z,226.30
2022-11-24T10:33:31.214Z,229.53
2022-11-24T10:43:34.965Z,229.57
2022-11-24T10:53:42.957Z,240.27
2022-11-24T11:03:49.277Z,246.33
2022-11-24T11:14:03.435Z,254.47
2022-11-24T11:24:17.604Z,243.43
2022-11-24T11:34:29.798Z,264.53
2022-11-24T11:44:40.525Z,258.77
2022-11-24T11:55:09.520Z,267.47
2022-11-24T12:05:24.048Z,268.40
2022-11-24T12:15:37.373Z,263.33
2022-11-24T12:25:46.956Z,267.43
2022-11-24T12:36:03.678Z,267.57
2022-11-24T12:46:18.733Z,266.77
2022-11-24T12:56:35.704Z,259.73
2022-11-24T13:06:49.809Z,241.73
2022-11-24T13:27:41.385Z,247.77
2022-11-24T13:37:52.965Z,241.20
2022-11-24T13:47:56.469Z,238.23
2022-11-24T13:58:33.339Z,232.20
2022-11-24T14:08:39.660Z,230.93
2022-11-24T14:18:46.688Z,211.40
2022-11-24T14:28:51.230Z,225.10
2022-11-24T14:38:56.103Z,231.03
2022-11-24T14:48:59.713Z,231.67
2022-11-24T14:59:06.182Z,219.23
2022-11-24T15:09:24.031Z,217.37
2022-11-24T15:19:34.172Z,216.37
2022-11-24T15:29:37.693Z,210.27
2022-11-24T15:39:42.536Z,210.10
2022-11-24T15:49:45.959Z,203.33
2022-11-24T15:59:50.785Z,206.57
2022-11-24T16:09:54.197Z,212.83
2022-11-24T16:20:00.812Z,199.87
2022-11-24T16:30:05.301Z,215.07
2022-11-24T16:40:11.831Z,211.73
2022-11-24T16:50:15.348Z,208.87
2022-11-24T17:00:21.031Z,229.20
2022-11-24T17:10:24.618Z,234.97
2022-11-24T17:20:31.355Z,222.60
2022-11-24T17:30:34.971Z,216.77
2022-11-24T17:40:39.796Z,237.60
2022-11-24T17:50:43.530Z,261.13
2022-11-24T18:00:51.472Z,245.63
2022-11-24T18:10:55.065Z,242.70
2022-11-24T18:21:01.668Z,240.87
2022-11-24T18:31:07.217Z,264.20
2022-11-24T18:41:14.057Z,249.40
2022-11-24T18:51:18.649Z,241.60
2022-11-24T19:01:27.191Z,244.23
2022-11-24T19:11:35.352Z,236.23
2022-11-24T19:21:42.187Z,242.20
2022-11-24T19:31:45.639Z,242.07
2022-11-24T19:41:50.822Z,231.03
2022-11-24T19:51:55.020Z,222.93
2022-11-24T20:02:01.843Z,230.80
2022-11-24T20:12:06.750Z,231.80
2022-11-24T20:22:11.632Z,233.97
2022-11-24T20:32:19.542Z,236.47
2022-11-24T20:42:24.524Z,237.17
2022-11-24T20:52:28.128Z,238.73
2022-11-24T21:02:32.962Z,237.27
2022-11-24T21:12:36.748Z,235.57
2022-11-24T21:22:41.819Z,244.77
2022-11-24T21:32:45.343Z,244.20
2022-11-24T21:42:50.112Z,240.43
2022-11-24T21:52:53.581Z,240.57
2022-11-24T22:02:58.411Z,240.80
2022-11-24T22:13:02.447Z,249.63
2022-11-24T22:23:07.393Z,242.13
2022-11-24T22:33:10.857Z,247.93
2022-11-24T22:43:18.906Z,233.80
2022-11-24T22:53:26.211Z,234.67
2022-11-24T23:03:31.172Z,240.37
2022-11-24T23:13:35.053Z,254.93
2022-11-24T23:23:40.943Z,265.63
2022-11-24T23:33:44.700Z,257.83
2022-11-24T23:43:49.572Z,255.17
2022-11-24T23:53:53.758Z,246.00
